createdAt,value
2019-05-25T00:00:55.441Z,3.30
2019-05-25T00:01:55.436Z,2.80
2019-05-25T00:02:55.456Z,4.30
2019-05-25T00:03:55.429Z,2.60
2019-05-25T00:04:55.425Z,2.70
2019-05-25T00:05:55.423Z,4.40
2019-05-25T00:06:55.417Z,3.70
2019-05-25T00:07:55.416Z,5.10
2019-05-25T00:08:55.409Z,3.30
2019-05-25T00:09:55.405Z,2.90
2019-05-25T00:10:55.394Z,4.90
2019-05-25T00:11:55.405Z,3.10
2019-05-25T00:12:55.385Z,2.80
2019-05-25T00:13:55.378Z,3.30
2019-05-25T00:14:55.380Z,4.40
2019-05-25T00:15:55.374Z,2.90
2019-05-25T00:16:55.370Z,3.50
2019-05-25T00:17:55.365Z,4.60
2019-05-25T00:18:55.359Z,4.10
2019-05-25T00:19:55.352Z,3.70
2019-05-25T00:20:55.348Z,4.00
2019-05-25T00:21:55.341Z,4.80
2019-05-25T00:22:55.341Z,4.90
2019-05-25T00:24:10.863Z,3.60
2019-05-25T00:24:55.327Z,4.50
2019-05-25T00:25:55.327Z,4.50
2019-05-25T00:26:55.319Z,4.80
2019-05-25T00:27:55.317Z,3.10
2019-05-25T00:28:55.311Z,3.80
2019-05-25T00:29:55.307Z,3.60
2019-05-25T00:30:55.302Z,6.30
2019-05-25T00:31:55.294Z,6.00
2019-05-25T00:32:55.285Z,2.70
2019-05-25T00:33:55.285Z,3.80
2019-05-25T00:34:55.282Z,5.20
2019-05-25T00:35:55.276Z,4.50
2019-05-25T00:36:55.278Z,6.20
2019-05-25T00:37:55.278Z,2.80
2019-05-25T00:38:55.306Z,8.00
2019-05-25T00:39:55.255Z,3.00
2019-05-25T00:40:55.249Z,3.90
2019-05-25T00:41:55.246Z,3.70
2019-05-25T00:42:55.237Z,5.40
2019-05-25T00:43:55.233Z,3.90
2019-05-25T00:44:55.225Z,5.60
2019-05-25T00:45:55.217Z,3.50
2019-05-25T00:46:55.227Z,5.20
2019-05-25T00:47:55.215Z,3.10
2019-05-25T00:48:55.208Z,2.60
2019-05-25T00:49:55.206Z,4.00
2019-05-25T00:50:55.195Z,5.80
2019-05-25T00:51:55.192Z,3.90
2019-05-25T00:52:55.185Z,4.60
2019-05-25T00:53:55.176Z,3.90
2019-05-25T00:54:55.207Z,4.00
2019-05-25T00:55:55.176Z,4.10
2019-05-25T00:56:55.166Z,4.40
2019-05-25T00:57:55.160Z,6.20
2019-05-25T00:58:55.160Z,5.00
2019-05-25T00:59:55.155Z,3.40
2019-05-25T01:00:55.165Z,4.60
2019-05-25T01:01:55.143Z,4.00
2019-05-25T01:02:55.130Z,3.40
2019-05-25T01:03:55.128Z,3.10
2019-05-25T01:04:55.121Z,7.90
2019-05-25T01:05:55.128Z,4.90
2019-05-25T01:06:55.122Z,7.10
2019-05-25T01:07:55.112Z,3.90
2019-05-25T01:08:55.104Z,5.90
2019-05-25T01:09:55.101Z,4.00
2019-05-25T01:10:55.092Z,4.80
2019-05-25T01:11:55.088Z,3.60
2019-05-25T01:12:55.084Z,5.70
2019-05-25T01:13:55.081Z,4.20
2019-05-25T01:14:55.071Z,6.30
2019-05-25T01:15:55.056Z,4.60
2019-05-25T01:16:55.078Z,4.50
2019-05-25T01:17:55.057Z,5.90
2019-05-25T01:18:55.052Z,5.20
2019-05-25T01:19:55.045Z,4.30
2019-05-25T01:20:55.040Z,4.30
2019-05-25T01:21:55.046Z,4.20
2019-05-25T01:22:55.027Z,7.80
2019-05-25T01:23:55.021Z,5.70
2019-05-25T01:24:55.017Z,5.50
2019-05-25T01:25:55.008Z,4.90
2019-05-25T01:26:55.033Z,6.70
2019-05-25T01:27:55.003Z,6.60
2019-05-25T01:28:54.996Z,5.50
2019-05-25T01:29:54.982Z,5.70
2019-05-25T01:30:54.988Z,5.00
2019-05-25T01:31:54.988Z,4.30
2019-05-25T01:32:54.971Z,8.20
2019-05-25T01:33:54.968Z,4.50
2019-05-25T01:34:54.989Z,5.20
2019-05-25T01:35:54.954Z,6.30
2019-05-25T01:36:54.957Z,5.70
2019-05-25T01:37:54.939Z,5.30
2019-05-25T01:38:54.941Z,5.40
2019-05-25T01:39:54.935Z,6.40
2019-05-25T01:40:54.949Z,5.20
2019-05-25T01:41:54.929Z,6.00
2019-05-25T01:42:54.926Z,5.30
2019-05-25T01:43:54.910Z,6.90
2019-05-25T01:44:54.907Z,6.20
2019-05-25T01:45:54.917Z,6.10
2019-05-25T01:46:54.895Z,5.00
2019-05-25T01:47:54.888Z,5.80
2019-05-25T01:48:54.881Z,5.50
2019-05-25T01:49:54.880Z,8.40
2019-05-25T01:50:54.876Z,6.60
2019-05-25T01:51:54.866Z,7.80
2019-05-25T01:52:54.870Z,6.70
2019-05-25T01:53:54.860Z,6.10
2019-05-25T01:54:59.868Z,6.00
2019-05-25T01:55:54.842Z,4.30
2019-05-25T01:56:54.843Z,8.80
2019-05-25T01:57:54.854Z,8.20
2019-05-25T01:58:54.831Z,5.80
2019-05-25T01:59:54.826Z,4.90
2019-05-25T02:00:54.837Z,6.10
2019-05-25T02:01:54.810Z,5.50
2019-05-25T02:02:54.808Z,6.20
2019-05-25T02:03:54.815Z,5.60
2019-05-25T02:04:54.796Z,9.80
2019-05-25T02:05:54.792Z,5.20
2019-05-25T02:06:54.788Z,4.70
2019-05-25T02:07:54.777Z,6.70
2019-05-25T02:08:54.794Z,7.20
2019-05-25T02:09:54.763Z,5.00
2019-05-25T02:10:54.763Z,4.80
2019-05-25T02:11:54.758Z,4.30
2019-05-25T02:12:54.751Z,8.90
2019-05-25T02:13:54.760Z,6.00
2019-05-25T02:14:54.735Z,7.20
2019-05-25T02:15:54.798Z,7.90
2019-05-25T02:16:54.727Z,10.20
2019-05-25T02:17:54.720Z,4.10
2019-05-25T02:18:54.712Z,6.80
2019-05-25T02:19:54.704Z,6.50
2019-05-25T02:20:54.696Z,6.30
2019-05-25T02:21:54.695Z,5.20
2019-05-25T02:22:54.691Z,6.10
2019-05-25T02:23:54.689Z,6.50
2019-05-25T02:24:54.673Z,6.60
2019-05-25T02:25:54.683Z,5.30
2019-05-25T02:26:54.665Z,8.00
2019-05-25T02:27:54.659Z,9.60
2019-05-25T02:28:54.651Z,5.40
2019-05-25T02:29:54.645Z,4.70
2019-05-25T02:30:54.645Z,6.30
2019-05-25T02:31:54.636Z,7.30
2019-05-25T02:32:54.624Z,5.70
2019-05-25T02:33:54.625Z,8.60
2019-05-25T02:34:54.624Z,6.40
2019-05-25T02:35:54.618Z,5.50
2019-05-25T02:36:54.616Z,5.80
2019-05-25T02:37:54.604Z,8.10
2019-05-25T02:38:54.591Z,4.90
2019-05-25T02:39:54.587Z,6.30
2019-05-25T02:40:54.573Z,7.10
2019-05-25T02:41:54.570Z,9.70
2019-05-25T02:42:54.589Z,9.90
2019-05-25T02:43:54.562Z,7.50
2019-05-25T02:44:54.555Z,5.60
2019-05-25T02:45:54.555Z,6.70
2019-05-25T02:46:54.544Z,5.20
2019-05-25T02:47:54.534Z,6.90
2019-05-25T02:48:54.532Z,6.70
2019-05-25T02:49:54.525Z,8.00
2019-05-25T02:50:54.523Z,7.70
2019-05-25T02:51:54.511Z,7.10
2019-05-25T02:52:54.499Z,8.60
2019-05-25T02:53:54.498Z,8.00
2019-05-25T02:54:54.492Z,8.90
2019-05-25T02:55:54.487Z,6.90
2019-05-25T02:56:54.481Z,4.80
2019-05-25T02:57:54.491Z,6.40
2019-05-25T02:58:54.466Z,8.20
2019-05-25T02:59:54.460Z,8.50
2019-05-25T03:00:54.451Z,6.50
2019-05-25T03:01:54.446Z,7.60
2019-05-25T03:02:54.447Z,4.90
2019-05-25T03:03:54.436Z,7.30
2019-05-25T03:04:54.427Z,8.10
2019-05-25T03:05:54.420Z,8.80
2019-05-25T03:06:54.418Z,8.30
2019-05-25T03:07:54.411Z,9.10
2019-05-25T03:08:54.405Z,4.80
2019-05-25T03:09:54.398Z,5.80
2019-05-25T03:10:54.392Z,10.00
2019-05-25T03:11:54.383Z,5.90
2019-05-25T03:12:54.376Z,6.60
2019-05-25T03:13:54.366Z,6.50
2019-05-25T03:14:54.368Z,8.30
2019-05-25T03:15:54.358Z,6.20
2019-05-25T03:16:54.355Z,7.40
2019-05-25T03:17:54.348Z,9.50
2019-05-25T03:18:54.338Z,8.20
2019-05-25T03:19:54.351Z,9.40
2019-05-25T03:20:54.326Z,7.50
2019-05-25T03:21:54.323Z,6.20
2019-05-25T03:22:54.311Z,7.80
2019-05-25T03:23:54.306Z,5.00
2019-05-25T03:24:54.302Z,9.30
2019-05-25T03:25:54.292Z,9.90
2019-05-25T03:26:54.289Z,10.30
2019-05-25T03:27:54.283Z,8.10
2019-05-25T03:28:54.285Z,5.30
2019-05-25T03:29:54.270Z,7.80
2019-05-25T03:30:54.261Z,5.00
2019-05-25T03:31:54.254Z,7.50
2019-05-25T03:32:54.249Z,6.00
2019-05-25T03:33:54.240Z,14.50
2019-05-25T03:34:54.246Z,7.70
2019-05-25T03:35:54.223Z,8.70
2019-05-25T03:36:54.225Z,7.40
2019-05-25T03:37:54.216Z,6.50
2019-05-25T03:38:54.211Z,9.20
2019-05-25T03:39:54.205Z,7.30
2019-05-25T03:40:54.202Z,7.20
2019-05-25T03:41:54.194Z,8.80
2019-05-25T03:42:54.179Z,10.90
2019-05-25T03:43:54.175Z,10.00
2019-05-25T03:44:54.171Z,9.70
2019-05-25T03:45:54.164Z,8.90
2019-05-25T03:46:54.163Z,8.00
2019-05-25T03:47:54.154Z,7.60
2019-05-25T03:48:54.148Z,5.80
2019-05-25T03:49:54.140Z,6.30
2019-05-25T03:50:54.132Z,8.30
2019-05-25T03:51:54.131Z,7.20
2019-05-25T03:52:54.120Z,6.40
2019-05-25T03:53:54.117Z,7.20
2019-05-25T03:54:54.114Z,7.10
2019-05-25T03:56:05.155Z,7.60
2019-05-25T03:56:54.092Z,10.90
2019-05-25T03:57:54.078Z,7.80
2019-05-25T03:58:54.088Z,6.30
2019-05-25T03:59:54.086Z,8.60
2019-05-25T04:00:54.075Z,10.40
2019-05-25T04:01:54.064Z,7.70
2019-05-25T04:02:54.060Z,10.20
2019-05-25T04:03:54.048Z,9.10
2019-05-25T04:04:54.044Z,8.00
2019-05-25T04:05:54.050Z,9.10
2019-05-25T04:06:54.032Z,9.60
2019-05-25T04:07:54.026Z,6.40
2019-05-25T04:08:54.013Z,7.20
2019-05-25T04:09:54.016Z,9.30
2019-05-25T04:10:54.020Z,9.80
2019-05-25T04:11:54.003Z,6.40
2019-05-25T04:12:54.020Z,7.80
2019-05-25T04:13:53.986Z,9.10
2019-05-25T04:14:53.986Z,9.90
2019-05-25T04:15:53.975Z,10.30
2019-05-25T04:16:53.989Z,13.10
2019-05-25T04:17:53.958Z,12.40
2019-05-25T04:18:53.955Z,11.70
2019-05-25T04:19:53.954Z,10.00
2019-05-25T04:20:53.950Z,8.40
2019-05-25T04:21:53.939Z,14.10
2019-05-25T04:22:53.927Z,11.10
2019-05-25T04:23:53.922Z,10.20
2019-05-25T04:24:53.917Z,10.20
2019-05-25T04:25:53.920Z,14.40
2019-05-25T04:26:53.903Z,13.30
2019-05-25T04:27:53.895Z,7.60
2019-05-25T04:28:53.887Z,9.70
2019-05-25T04:29:53.883Z,9.30
2019-05-25T04:30:53.889Z,10.00
2019-05-25T04:31:53.873Z,8.80
2019-05-25T04:32:53.867Z,6.50
2019-05-25T04:33:53.859Z,8.50
2019-05-25T04:34:53.869Z,8.60
2019-05-25T04:35:53.848Z,9.20
2019-05-25T04:36:53.842Z,9.60
2019-05-25T04:37:53.837Z,7.20
2019-05-25T04:38:53.833Z,8.70
2019-05-25T04:39:53.886Z,8.30
2019-05-25T04:40:53.816Z,7.50
2019-05-25T04:41:53.817Z,12.10
2019-05-25T04:42:53.835Z,7.10
2019-05-25T04:43:53.817Z,9.00
2019-05-25T04:44:53.790Z,7.90
2019-05-25T04:45:53.801Z,11.20
2019-05-25T04:46:53.777Z,12.40
2019-05-25T04:47:53.764Z,9.40
2019-05-25T04:48:53.766Z,8.60
2019-05-25T04:49:53.761Z,11.10
2019-05-25T04:50:53.755Z,10.60
2019-05-25T04:51:53.749Z,8.40
2019-05-25T04:52:53.742Z,12.20
2019-05-25T04:53:53.748Z,8.80
2019-05-25T04:54:53.734Z,7.30
2019-05-25T04:55:53.721Z,10.50
2019-05-25T04:56:53.724Z,7.50
2019-05-25T04:57:53.737Z,12.30
2019-05-25T04:58:53.705Z,10.40
2019-05-25T04:59:53.729Z,6.60
2019-05-25T05:00:53.703Z,9.50
2019-05-25T05:01:53.686Z,12.20
2019-05-25T05:02:53.689Z,9.30
2019-05-25T05:03:53.680Z,8.00
2019-05-25T05:04:53.688Z,8.50
2019-05-25T05:05:53.667Z,10.90
2019-05-25T05:06:53.673Z,10.30
2019-05-25T05:07:53.659Z,7.80
2019-05-25T05:08:53.648Z,9.60
2019-05-25T05:10:02.286Z,9.50
2019-05-25T05:10:53.640Z,8.50
2019-05-25T05:11:53.627Z,8.80
2019-05-25T05:12:53.628Z,9.80
2019-05-25T05:13:53.618Z,10.00
2019-05-25T05:14:56.445Z,12.70
2019-05-25T05:15:53.612Z,9.70
2019-05-25T05:16:53.609Z,6.90
2019-05-25T05:17:53.600Z,8.40
2019-05-25T05:18:53.596Z,11.30
2019-05-25T05:19:53.588Z,9.90
2019-05-25T05:20:53.585Z,10.80
2019-05-25T05:21:53.579Z,9.10
2019-05-25T05:22:53.577Z,11.50
2019-05-25T05:23:53.593Z,10.10
2019-05-25T05:24:53.570Z,12.10
2019-05-25T05:25:53.565Z,7.50
2019-05-25T05:26:56.193Z,9.80
2019-05-25T05:27:53.555Z,10.90
2019-05-25T05:28:53.552Z,12.20
2019-05-25T05:29:54.368Z,12.50
2019-05-25T05:30:53.541Z,9.30
2019-05-25T05:31:53.558Z,9.60
2019-05-25T05:32:53.543Z,9.80
2019-05-25T05:33:53.538Z,8.30
2019-05-25T05:34:53.541Z,9.00
2019-05-25T05:35:53.546Z,8.20
2019-05-25T05:36:53.541Z,10.70
2019-05-25T05:37:53.537Z,10.90
2019-05-25T05:38:53.540Z,7.90
2019-05-25T05:39:53.532Z,9.30
2019-05-25T05:40:53.532Z,8.70
2019-05-25T05:41:53.535Z,7.40
2019-05-25T05:42:53.545Z,11.90
2019-05-25T05:43:54.379Z,10.50
2019-05-25T05:44:53.546Z,10.60
2019-05-25T05:45:53.551Z,10.30
2019-05-25T05:46:53.531Z,9.70
2019-05-25T05:47:53.539Z,11.90
2019-05-25T05:48:53.539Z,10.40
2019-05-25T05:49:53.568Z,11.30
2019-05-25T05:50:53.540Z,12.40
2019-05-25T05:51:53.538Z,12.60
2019-05-25T05:52:53.536Z,10.70
2019-05-25T05:53:53.537Z,10.50
2019-05-25T05:54:53.547Z,10.70
2019-05-25T05:55:53.550Z,11.80
2019-05-25T05:56:53.549Z,14.70
2019-05-25T05:57:53.550Z,9.90
2019-05-25T05:58:53.551Z,10.10
2019-05-25T05:59:53.551Z,10.70
2019-05-25T06:00:53.561Z,10.30
2019-05-25T06:01:53.563Z,11.40
2019-05-25T06:02:53.570Z,9.20
2019-05-25T06:03:53.559Z,12.30
2019-05-25T06:04:53.566Z,11.00
2019-05-25T06:05:53.569Z,12.20
2019-05-25T06:06:53.580Z,11.80
2019-05-25T06:07:53.579Z,11.40
2019-05-25T06:08:53.582Z,12.70
2019-05-25T06:09:53.585Z,10.50
2019-05-25T06:10:53.591Z,9.70
2019-05-25T06:11:53.590Z,11.00
2019-05-25T06:12:53.594Z,11.10
2019-05-25T06:13:53.604Z,8.80
2019-05-25T06:14:53.605Z,12.10
2019-05-25T06:15:55.937Z,14.90
2019-05-25T06:16:53.611Z,15.20
2019-05-25T06:17:53.616Z,11.20
2019-05-25T06:18:53.624Z,9.40
2019-05-25T06:19:53.630Z,11.90
2019-05-25T06:20:53.640Z,13.60
2019-05-25T06:21:53.633Z,11.80
2019-05-25T06:22:53.641Z,13.50
2019-05-25T06:23:53.644Z,11.60
2019-05-25T06:24:53.650Z,12.70
2019-05-25T06:25:53.658Z,14.00
2019-05-25T06:26:53.666Z,11.20
2019-05-25T06:27:53.672Z,12.70
2019-05-25T06:28:53.680Z,13.80
2019-05-25T06:29:53.682Z,9.50
2019-05-25T06:30:53.680Z,10.90
2019-05-25T06:31:53.687Z,10.20
2019-05-25T06:32:53.705Z,13.60
2019-05-25T06:33:53.705Z,11.80
2019-05-25T06:34:53.705Z,12.70
2019-05-25T06:35:53.712Z,11.70
2019-05-25T06:36:53.718Z,10.60
2019-05-25T06:37:53.726Z,11.40
2019-05-25T06:38:53.733Z,11.70
2019-05-25T06:39:53.739Z,10.50
2019-05-25T06:40:53.748Z,10.30
2019-05-25T06:41:53.751Z,10.60
2019-05-25T06:42:53.756Z,12.10
2019-05-25T06:43:53.755Z,15.30
2019-05-25T06:44:53.778Z,9.80
2019-05-25T06:45:53.774Z,11.30
2019-05-25T06:46:53.791Z,14.20
2019-05-25T06:47:53.790Z,12.40
2019-05-25T06:48:53.797Z,10.90
2019-05-25T06:49:53.803Z,11.70
2019-05-25T06:50:53.815Z,11.90
2019-05-25T06:51:53.821Z,13.80
2019-05-25T06:52:57.620Z,16.60
2019-05-25T06:53:53.836Z,14.10
2019-05-25T06:54:53.846Z,12.20
2019-05-25T06:55:53.846Z,13.70
2019-05-25T06:56:53.867Z,11.40
2019-05-25T06:57:53.857Z,14.70
2019-05-25T06:58:53.868Z,16.00
2019-05-25T06:59:53.873Z,13.30
2019-05-25T07:00:53.880Z,13.10
2019-05-25T07:01:53.890Z,15.00
2019-05-25T07:02:53.890Z,16.30
2019-05-25T07:03:53.893Z,14.30
2019-05-25T07:04:53.902Z,15.10
2019-05-25T07:05:53.909Z,15.00
2019-05-25T07:06:53.910Z,14.80
2019-05-25T07:07:54.676Z,12.80
2019-05-25T07:08:53.920Z,14.20
2019-05-25T07:09:53.927Z,15.20
2019-05-25T07:10:53.940Z,15.40
2019-05-25T07:11:53.942Z,15.70
2019-05-25T07:12:54.015Z,14.20
2019-05-25T07:13:53.955Z,13.10
2019-05-25T07:14:53.960Z,14.30
2019-05-25T07:15:53.965Z,12.30
2019-05-25T07:16:53.971Z,12.20
2019-05-25T07:17:53.976Z,13.70
2019-05-25T07:18:53.988Z,10.10
2019-05-25T07:19:53.992Z,16.90
2019-05-25T07:20:53.998Z,10.40
2019-05-25T07:21:54.008Z,12.10
2019-05-25T07:22:54.015Z,14.90
2019-05-25T07:23:54.022Z,13.20
2019-05-25T07:24:54.026Z,14.00
2019-05-25T07:25:54.032Z,11.50
2019-05-25T07:26:54.036Z,12.70
2019-05-25T07:27:59.769Z,11.50
2019-05-25T07:28:54.059Z,12.30
2019-05-25T07:29:54.059Z,13.90
2019-05-25T07:30:54.062Z,12.00
2019-05-25T07:31:54.078Z,12.10
2019-05-25T07:32:54.087Z,12.00
2019-05-25T07:33:54.097Z,14.20
2019-05-25T07:34:54.094Z,15.60
2019-05-25T07:35:54.100Z,13.90
2019-05-25T07:36:54.113Z,14.70
2019-05-25T07:37:54.116Z,14.90
2019-05-25T07:38:54.119Z,14.50
2019-05-25T07:39:54.126Z,12.90
2019-05-25T07:40:54.133Z,15.90
2019-05-25T07:41:54.139Z,13.80
2019-05-25T07:42:54.148Z,15.40
2019-05-25T07:43:54.144Z,14.60
2019-05-25T07:44:54.165Z,13.00
2019-05-25T07:45:54.176Z,13.60
2019-05-25T07:46:54.171Z,16.60
2019-05-25T07:47:54.179Z,13.10
2019-05-25T07:48:54.186Z,12.40
2019-05-25T07:49:54.190Z,16.40
2019-05-25T07:50:54.203Z,13.00
2019-05-25T07:51:54.206Z,14.80
2019-05-25T07:52:54.210Z,13.00
2019-05-25T07:53:54.215Z,12.20
2019-05-25T07:54:54.225Z,12.40
2019-05-25T07:55:54.232Z,11.90
2019-05-25T07:56:54.236Z,13.90
2019-05-25T07:57:54.243Z,11.80
2019-05-25T07:58:54.245Z,16.40
2019-05-25T07:59:54.254Z,13.90
2019-05-25T08:00:54.264Z,13.00
2019-05-25T08:01:54.271Z,14.50
2019-05-25T08:02:54.281Z,16.50
2019-05-25T08:03:54.281Z,13.90
2019-05-25T08:04:54.283Z,13.60
2019-05-25T08:05:54.290Z,16.40
2019-05-25T08:06:54.381Z,14.60
2019-05-25T08:07:54.293Z,17.40
2019-05-25T08:08:54.304Z,16.20
2019-05-25T08:09:54.310Z,13.80
2019-05-25T08:10:54.320Z,15.30
2019-05-25T08:11:54.314Z,19.10
2019-05-25T08:12:54.323Z,13.70
2019-05-25T08:13:54.325Z,16.30
2019-05-25T08:14:54.325Z,15.90
2019-05-25T08:15:54.348Z,14.80
2019-05-25T08:16:54.389Z,17.10
2019-05-25T08:17:54.357Z,14.00
2019-05-25T08:18:54.350Z,15.60
2019-05-25T08:19:54.358Z,13.30
2019-05-25T08:20:54.374Z,17.40
2019-05-25T08:21:54.357Z,14.70
2019-05-25T08:22:54.370Z,16.40
2019-05-25T08:23:54.368Z,15.00
2019-05-25T08:24:54.380Z,16.20
2019-05-25T08:25:54.379Z,14.30
2019-05-25T08:26:54.390Z,12.30
2019-05-25T08:27:54.393Z,10.00
2019-05-25T08:28:54.398Z,13.10
2019-05-25T08:29:54.398Z,13.50
2019-05-25T08:30:54.394Z,15.00
2019-05-25T08:31:54.410Z,14.50
2019-05-25T08:32:54.402Z,9.90
2019-05-25T08:33:54.410Z,11.00
2019-05-25T08:34:54.417Z,14.10
2019-05-25T08:35:54.419Z,13.20
2019-05-25T08:36:54.431Z,11.30
2019-05-25T08:37:54.426Z,14.00
2019-05-25T08:38:55.031Z,13.70
2019-05-25T08:39:54.434Z,15.70
2019-05-25T08:40:54.445Z,14.60
2019-05-25T08:41:54.444Z,17.00
2019-05-25T08:42:54.447Z,17.00
2019-05-25T08:43:54.468Z,18.80
2019-05-25T08:44:54.452Z,16.60
2019-05-25T08:45:54.455Z,18.40
2019-05-25T08:46:55.564Z,15.50
2019-05-25T08:47:57.106Z,18.10
2019-05-25T08:48:54.471Z,16.00
2019-05-25T08:49:54.473Z,16.70
2019-05-25T08:50:54.473Z,18.00
2019-05-25T08:51:55.135Z,15.80
2019-05-25T08:52:54.489Z,15.40
2019-05-25T08:53:54.485Z,19.10
2019-05-25T08:54:56.708Z,18.00
2019-05-25T08:55:54.497Z,16.70
2019-05-25T08:56:54.496Z,20.80
2019-05-25T08:57:54.498Z,19.50
2019-05-25T08:58:55.651Z,19.30
2019-05-25T08:59:54.511Z,20.80
2019-05-25T09:00:54.513Z,22.30
2019-05-25T09:01:54.520Z,21.50
2019-05-25T09:02:54.517Z,20.60
2019-05-25T09:03:54.528Z,22.90
2019-05-25T09:04:54.526Z,19.70
2019-05-25T09:05:54.545Z,25.90
2019-05-25T09:06:54.542Z,22.60
2019-05-25T09:07:54.538Z,22.50
2019-05-25T09:08:54.540Z,20.20
2019-05-25T09:09:54.545Z,19.40
2019-05-25T09:10:54.546Z,25.40
2019-05-25T09:11:54.547Z,21.80
2019-05-25T09:12:54.554Z,22.20
2019-05-25T09:13:54.555Z,22.10
2019-05-25T09:14:54.555Z,21.40
2019-05-25T09:15:54.560Z,20.80
2019-05-25T09:16:54.563Z,19.90
2019-05-25T09:17:54.571Z,23.00
2019-05-25T09:18:54.571Z,19.40
2019-05-25T09:19:54.572Z,21.60
2019-05-25T09:20:54.576Z,19.70
2019-05-25T09:22:02.426Z,18.90
2019-05-25T09:22:54.577Z,20.20
2019-05-25T09:23:54.578Z,19.70
2019-05-25T09:24:54.582Z,22.90
2019-05-25T09:25:54.599Z,20.50
2019-05-25T09:26:54.587Z,19.50
2019-05-25T09:27:54.595Z,20.10
2019-05-25T09:29:04.007Z,20.10
2019-05-25T09:29:54.597Z,18.90
2019-05-25T09:30:54.607Z,21.00
2019-05-25T09:31:54.606Z,20.40
2019-05-25T09:32:54.608Z,23.80
2019-05-25T09:33:54.618Z,20.50
2019-05-25T09:34:54.610Z,22.80
2019-05-25T09:35:54.611Z,24.00
2019-05-25T09:36:54.616Z,20.20
2019-05-25T09:37:54.619Z,19.10
2019-05-25T09:38:54.640Z,19.10
2019-05-25T09:39:54.626Z,19.10
2019-05-25T09:40:54.629Z,19.00
2019-05-25T09:41:54.631Z,20.90
2019-05-25T09:42:54.665Z,18.20
2019-05-25T09:43:54.631Z,18.10
2019-05-25T09:44:54.631Z,21.50
2019-05-25T09:45:54.639Z,18.30
2019-05-25T09:46:54.638Z,20.40
2019-05-25T09:47:54.637Z,19.00
2019-05-25T09:48:54.642Z,20.20
2019-05-25T09:49:54.651Z,20.20
2019-05-25T09:50:54.659Z,19.90
2019-05-25T09:51:54.653Z,19.30
2019-05-25T09:52:54.656Z,18.50
2019-05-25T09:53:54.657Z,19.80
2019-05-25T09:54:55.694Z,22.00
2019-05-25T09:55:54.661Z,23.80
2019-05-25T09:56:54.663Z,20.10
2019-05-25T09:57:54.661Z,22.80
2019-05-25T09:58:54.668Z,19.90
2019-05-25T09:59:54.671Z,19.40
2019-05-25T10:00:54.667Z,18.30
2019-05-25T10:01:54.673Z,18.10
2019-05-25T10:02:54.689Z,18.80
2019-05-25T10:03:56.642Z,22.20
2019-05-25T10:04:54.678Z,17.60
2019-05-25T10:05:54.691Z,22.70
2019-05-25T10:06:54.719Z,20.50
2019-05-25T10:07:54.682Z,18.00
2019-05-25T10:08:54.680Z,18.60
2019-05-25T10:09:54.685Z,20.30
2019-05-25T10:10:54.693Z,17.70
2019-05-25T10:11:54.690Z,17.90
2019-05-25T10:12:54.692Z,17.40
2019-05-25T10:13:54.700Z,20.50
2019-05-25T10:14:54.698Z,20.90
2019-05-25T10:15:54.698Z,18.20
2019-05-25T10:16:54.697Z,18.70
2019-05-25T10:17:54.700Z,17.40
2019-05-25T10:18:54.697Z,15.60
2019-05-25T10:19:54.697Z,19.40
2019-05-25T10:20:54.701Z,18.40
2019-05-25T10:21:54.708Z,17.20
2019-05-25T10:22:54.706Z,17.70
2019-05-25T10:23:54.706Z,19.40
2019-05-25T10:24:54.711Z,17.50
2019-05-25T10:25:54.706Z,19.50
2019-05-25T10:26:54.706Z,17.60
2019-05-25T10:27:54.706Z,18.60
2019-05-25T10:28:54.711Z,22.60
2019-05-25T10:29:54.712Z,19.80
2019-05-25T10:30:54.719Z,18.20
2019-05-25T10:31:54.720Z,18.80
2019-05-25T10:32:54.716Z,17.70
2019-05-25T10:33:54.720Z,20.00
2019-05-25T10:34:54.722Z,19.30
2019-05-25T10:35:54.724Z,16.60
2019-05-25T10:36:54.727Z,17.90
2019-05-25T10:37:54.731Z,19.20
2019-05-25T10:38:54.725Z,19.80
2019-05-25T10:39:54.739Z,17.60
2019-05-25T10:40:58.265Z,16.70
2019-05-25T10:41:54.742Z,18.30
2019-05-25T10:42:54.739Z,16.80
2019-05-25T10:43:54.730Z,20.70
2019-05-25T10:44:54.740Z,18.80
2019-05-25T10:45:54.741Z,22.00
2019-05-25T10:46:54.747Z,22.40
2019-05-25T10:47:54.751Z,22.10
2019-05-25T10:48:54.744Z,18.50
2019-05-25T10:49:54.784Z,30.80
2019-05-25T10:50:54.753Z,22.40
2019-05-25T10:51:54.745Z,23.80
2019-05-25T10:52:54.745Z,16.80
2019-05-25T10:53:54.752Z,18.50
2019-05-25T10:54:54.757Z,16.90
2019-05-25T10:55:54.767Z,19.40
2019-05-25T10:56:54.923Z,20.60
2019-05-25T10:57:54.791Z,23.70
2019-05-25T10:58:54.769Z,23.20
2019-05-25T10:59:54.780Z,19.70
2019-05-25T11:00:54.768Z,22.90
2019-05-25T11:01:54.776Z,33.80
2019-05-25T11:02:54.773Z,20.10
2019-05-25T11:03:54.783Z,22.50
2019-05-25T11:04:56.091Z,21.60
2019-05-25T11:05:54.768Z,18.30
2019-05-25T11:06:54.774Z,22.50
2019-05-25T11:07:54.799Z,24.70
2019-05-25T11:08:54.781Z,20.00
2019-05-25T11:09:54.782Z,17.80
2019-05-25T11:10:54.822Z,20.40
2019-05-25T11:11:54.792Z,20.30
2019-05-25T11:12:54.773Z,19.30
2019-05-25T11:13:54.790Z,19.00
2019-05-25T11:14:54.786Z,23.10
2019-05-25T11:15:54.778Z,18.60
2019-05-25T11:16:54.800Z,18.90
2019-05-25T11:17:54.784Z,20.80
2019-05-25T11:18:54.799Z,21.70
2019-05-25T11:19:54.793Z,21.80
2019-05-25T11:20:54.787Z,20.20
2019-05-25T11:21:54.788Z,20.90
2019-05-25T11:22:54.796Z,23.10
2019-05-25T11:23:54.780Z,21.00
2019-05-25T11:24:54.793Z,19.40
2019-05-25T11:25:54.784Z,24.10
2019-05-25T11:26:54.819Z,20.50
2019-05-25T11:27:54.801Z,19.90
2019-05-25T11:28:54.800Z,20.90
2019-05-25T11:30:07.949Z,21.40
2019-05-25T11:30:54.798Z,21.50
2019-05-25T11:31:58.987Z,21.50
2019-05-25T11:32:54.786Z,20.30
2019-05-25T11:33:54.799Z,18.30
2019-05-25T11:34:54.800Z,22.20
2019-05-25T11:35:54.795Z,21.40
2019-05-25T11:36:54.803Z,20.00
2019-05-25T11:37:54.804Z,21.20
2019-05-25T11:38:54.802Z,17.40
2019-05-25T11:39:54.802Z,18.50
2019-05-25T11:40:54.802Z,18.80
2019-05-25T11:41:54.802Z,19.20
2019-05-25T11:42:54.800Z,23.80
2019-05-25T11:43:54.807Z,19.90
2019-05-25T11:44:55.621Z,18.60
2019-05-25T11:45:54.810Z,18.40
2019-05-25T11:46:54.818Z,18.00
2019-05-25T11:47:54.811Z,17.80
2019-05-25T11:48:54.810Z,21.00
2019-05-25T11:49:54.811Z,19.60
2019-05-25T11:50:54.815Z,18.50
2019-05-25T11:51:54.812Z,19.50
2019-05-25T11:52:54.818Z,16.20
2019-05-25T11:53:54.815Z,16.30
2019-05-25T11:54:54.818Z,15.30
2019-05-25T11:55:54.819Z,20.20
2019-05-25T11:56:55.633Z,16.90
2019-05-25T11:57:54.830Z,15.30
2019-05-25T11:58:54.821Z,17.00
2019-05-25T11:59:54.814Z,16.50
2019-05-25T12:00:54.813Z,17.20
2019-05-25T12:01:54.830Z,18.50
2019-05-25T12:02:54.828Z,18.40
2019-05-25T12:03:54.817Z,18.80
2019-05-25T12:04:54.818Z,19.00
2019-05-25T12:05:54.823Z,17.10
2019-05-25T12:06:55.639Z,17.50
2019-05-25T12:07:54.822Z,17.20
2019-05-25T12:08:54.821Z,16.90
2019-05-25T12:09:54.839Z,17.60
2019-05-25T12:10:54.827Z,16.50
2019-05-25T12:11:54.825Z,15.60
2019-05-25T12:12:54.825Z,15.70
2019-05-25T12:13:54.820Z,16.10
2019-05-25T12:14:54.823Z,15.00
2019-05-25T12:15:54.828Z,16.70
2019-05-25T12:16:54.828Z,15.40
2019-05-25T12:17:54.882Z,17.50
2019-05-25T12:18:54.839Z,17.40
2019-05-25T12:19:54.840Z,18.80
2019-05-25T12:20:54.838Z,14.90
2019-05-25T12:21:54.849Z,17.30
2019-05-25T12:22:54.837Z,16.90
2019-05-25T12:23:54.834Z,17.40
2019-05-25T12:24:54.840Z,16.10
2019-05-25T12:25:54.838Z,15.60
2019-05-25T12:26:54.840Z,16.60
2019-05-25T12:27:54.838Z,16.50
2019-05-25T12:28:54.839Z,18.40
2019-05-25T12:29:54.836Z,16.40
2019-05-25T12:30:54.877Z,17.90
2019-05-25T12:32:03.720Z,16.90
2019-05-25T12:32:54.899Z,18.30
2019-05-25T12:33:54.850Z,15.80
2019-05-25T12:34:54.842Z,18.70
2019-05-25T12:35:54.848Z,18.20
2019-05-25T12:36:54.836Z,19.00
2019-05-25T12:37:54.853Z,18.10
2019-05-25T12:38:54.908Z,18.60
2019-05-25T12:39:54.858Z,18.60
2019-05-25T12:40:55.183Z,16.10
2019-05-25T12:41:54.844Z,16.10
2019-05-25T12:42:54.841Z,17.20
2019-05-25T12:43:55.291Z,19.10
2019-05-25T12:44:55.709Z,22.60
2019-05-25T12:45:54.850Z,19.20
2019-05-25T12:46:54.854Z,19.30
2019-05-25T12:47:54.855Z,18.40
2019-05-25T12:48:54.846Z,16.50
2019-05-25T12:49:54.853Z,18.30
2019-05-25T12:50:55.188Z,16.10
2019-05-25T12:51:54.855Z,18.50
2019-05-25T12:52:54.847Z,16.60
2019-05-25T12:53:54.854Z,18.50
2019-05-25T12:54:54.854Z,17.20
2019-05-25T12:55:55.565Z,19.90
2019-05-25T12:56:54.852Z,18.10
2019-05-25T12:57:55.480Z,19.40
2019-05-25T12:58:55.888Z,21.00
2019-05-25T12:59:55.562Z,18.20
2019-05-25T13:00:56.238Z,18.70
2019-05-25T13:01:55.485Z,18.10
2019-05-25T13:02:54.852Z,20.50